sensor_id;sensor_type;location;lat;lon;timestamp;P1;durP1;ratioP1;P2;durP2;ratioP2
4857;SDS011;58975;51.978;8.472;2023-05-07T00:01:20;18.20;;;11.95;;
4857;SDS011;58975;51.978;8.472;2023-05-07T00:06:17;13.10;;;9.27;;
4857;SDS011;58975;51.978;8.472;2023-05-07T00:11:13;24.45;;;14.02;;
4857;SDS011;58975;51.978;8.472;2023-05-07T00:16:10;17.83;;;11.00;;
4857;SDS011;58975;51.978;8.472;2023-05-07T00:21:07;18.25;;;12.38;;
4857;SDS011;58975;51.978;8.472;2023-05-07T00:26:03;21.70;;;12.88;;
4857;SDS011;58975;51.978;8.472;2023-05-07T00:31:00;22.40;;;13.52;;
4857;SDS011;58975;51.978;8.472;2023-05-07T00:35:56;24.00;;;13.45;;
4857;SDS011;58975;51.978;8.472;2023-05-07T00:40:53;19.77;;;12.65;;
4857;SDS011;58975;51.978;8.472;2023-05-07T00:45:50;19.33;;;12.95;;
4857;SDS011;58975;51.978;8.472;2023-05-07T00:50:46;24.10;;;13.00;;
4857;SDS011;58975;51.978;8.472;2023-05-07T00:55:44;21.67;;;13.50;;
4857;SDS011;58975;51.978;8.472;2023-05-07T01:00:40;19.45;;;12.95;;
4857;SDS011;58975;51.978;8.472;2023-05-07T01:05:37;18.80;;;12.93;;
4857;SDS011;58975;51.978;8.472;2023-05-07T01:10:35;22.17;;;13.07;;
4857;SDS011;58975;51.978;8.472;2023-05-07T01:15:31;19.75;;;12.70;;
4857;SDS011;58975;51.978;8.472;2023-05-07T01:20:28;19.35;;;13.35;;
4857;SDS011;58975;51.978;8.472;2023-05-07T01:25:24;20.73;;;13.13;;
4857;SDS011;58975;51.978;8.472;2023-05-07T01:30:21;23.23;;;14.75;;
4857;SDS011;58975;51.978;8.472;2023-05-07T01:35:19;21.80;;;13.88;;
4857;SDS011;58975;51.978;8.472;2023-05-07T01:40:20;20.48;;;14.27;;
4857;SDS011;58975;51.978;8.472;2023-05-07T01:45:17;22.55;;;15.75;;
4857;SDS011;58975;51.978;8.472;2023-05-07T01:50:13;23.13;;;14.05;;
4857;SDS011;58975;51.978;8.472;2023-05-07T01:55:14;22.13;;;13.82;;
4857;SDS011;58975;51.978;8.472;2023-05-07T02:00:10;27.88;;;14.88;;
4857;SDS011;58975;51.978;8.472;2023-05-07T02:05:07;23.90;;;16.15;;
4857;SDS011;58975;51.978;8.472;2023-05-07T02:10:04;23.95;;;14.45;;
4857;SDS011;58975;51.978;8.472;2023-05-07T02:15:01;22.87;;;14.80;;
4857;SDS011;58975;51.978;8.472;2023-05-07T02:19:58;21.23;;;14.38;;
4857;SDS011;58975;51.978;8.472;2023-05-07T02:24:55;27.92;;;15.75;;
4857;SDS011;58975;51.978;8.472;2023-05-07T02:29:51;23.45;;;15.63;;
4857;SDS011;58975;51.978;8.472;2023-05-07T02:34:49;23.35;;;15.43;;
4857;SDS011;58975;51.978;8.472;2023-05-07T02:39:47;25.08;;;15.07;;
4857;SDS011;58975;51.978;8.472;2023-05-07T02:44:43;24.50;;;16.10;;
4857;SDS011;58975;51.978;8.472;2023-05-07T02:49:40;24.00;;;15.27;;
4857;SDS011;58975;51.978;8.472;2023-05-07T02:54:36;25.75;;;15.50;;
4857;SDS011;58975;51.978;8.472;2023-05-07T02:59:32;23.60;;;15.52;;
4857;SDS011;58975;51.978;8.472;2023-05-07T03:04:29;30.00;;;16.98;;
4857;SDS011;58975;51.978;8.472;2023-05-07T03:09:25;26.83;;;17.13;;
4857;SDS011;58975;51.978;8.472;2023-05-07T03:14:22;28.40;;;16.17;;
4857;SDS011;58975;51.978;8.472;2023-05-07T03:19:18;25.20;;;15.07;;
4857;SDS011;58975;51.978;8.472;2023-05-07T03:24:15;26.13;;;15.90;;
4857;SDS011;58975;51.978;8.472;2023-05-07T03:29:11;29.25;;;17.20;;
4857;SDS011;58975;51.978;8.472;2023-05-07T03:34:08;31.95;;;16.33;;
4857;SDS011;58975;51.978;8.472;2023-05-07T03:39:04;30.02;;;16.77;;
4857;SDS011;58975;51.978;8.472;2023-05-07T03:44:01;30.45;;;16.83;;
4857;SDS011;58975;51.978;8.472;2023-05-07T03:48:57;25.63;;;14.95;;
4857;SDS011;58975;51.978;8.472;2023-05-07T03:53:54;26.73;;;17.25;;
4857;SDS011;58975;51.978;8.472;2023-05-07T03:58:50;23.27;;;15.15;;
4857;SDS011;58975;51.978;8.472;2023-05-07T04:03:47;28.10;;;16.27;;
4857;SDS011;58975;51.978;8.472;2023-05-07T04:08:43;30.25;;;16.75;;
4857;SDS011;58975;51.978;8.472;2023-05-07T04:13:40;24.85;;;14.95;;
4857;SDS011;58975;51.978;8.472;2023-05-07T04:18:36;25.13;;;16.00;;
4857;SDS011;58975;51.978;8.472;2023-05-07T04:23:32;24.98;;;15.02;;
4857;SDS011;58975;51.978;8.472;2023-05-07T04:28:29;27.80;;;15.73;;
4857;SDS011;58975;51.978;8.472;2023-05-07T04:33:26;26.23;;;16.48;;
4857;SDS011;58975;51.978;8.472;2023-05-07T04:38:22;27.45;;;15.07;;
4857;SDS011;58975;51.978;8.472;2023-05-07T04:43:20;29.60;;;16.07;;
4857;SDS011;58975;51.978;8.472;2023-05-07T04:48:16;23.48;;;14.88;;
4857;SDS011;58975;51.978;8.472;2023-05-07T04:53:15;30.98;;;15.75;;
4857;SDS011;58975;51.978;8.472;2023-05-07T04:58:12;26.63;;;15.27;;
4857;SDS011;58975;51.978;8.472;2023-05-07T05:03:09;25.83;;;14.80;;
4857;SDS011;58975;51.978;8.472;2023-05-07T05:08:05;24.63;;;14.95;;
4857;SDS011;58975;51.978;8.472;2023-05-07T05:13:02;27.00;;;15.60;;
4857;SDS011;58975;51.978;8.472;2023-05-07T05:17:58;27.75;;;15.18;;
4857;SDS011;58975;51.978;8.472;2023-05-07T05:22:55;24.95;;;15.30;;
4857;SDS011;58975;51.978;8.472;2023-05-07T05:27:51;25.25;;;15.10;;
4857;SDS011;58975;51.978;8.472;2023-05-07T05:32:48;27.20;;;14.80;;
4857;SDS011;58975;51.978;8.472;2023-05-07T05:37:44;26.20;;;15.27;;
4857;SDS011;58975;51.978;8.472;2023-05-07T05:42:40;23.05;;;14.57;;
4857;SDS011;58975;51.978;8.472;2023-05-07T05:47:37;23.83;;;15.95;;
4857;SDS011;58975;51.978;8.472;2023-05-07T05:52:34;26.65;;;13.63;;
4857;SDS011;58975;51.978;8.472;2023-05-07T05:57:31;21.98;;;13.05;;
4857;SDS011;58975;51.978;8.472;2023-05-07T06:02:27;22.52;;;14.02;;
4857;SDS011;58975;51.978;8.472;2023-05-07T06:07:24;21.60;;;14.02;;
4857;SDS011;58975;51.978;8.472;2023-05-07T06:12:20;20.88;;;13.65;;
4857;SDS011;58975;51.978;8.472;2023-05-07T06:17:17;21.73;;;12.98;;
4857;SDS011;58975;51.978;8.472;2023-05-07T06:22:17;22.55;;;13.73;;
4857;SDS011;58975;51.978;8.472;2023-05-07T06:27:13;20.70;;;12.63;;
4857;SDS011;58975;51.978;8.472;2023-05-07T06:32:10;21.85;;;13.20;;
4857;SDS011;58975;51.978;8.472;2023-05-07T06:37:07;23.90;;;12.20;;
4857;SDS011;58975;51.978;8.472;2023-05-07T06:42:04;18.27;;;11.93;;
4857;SDS011;58975;51.978;8.472;2023-05-07T06:47:01;22.13;;;12.15;;
4857;SDS011;58975;51.978;8.472;2023-05-07T06:51:57;21.67;;;11.40;;
4857;SDS011;58975;51.978;8.472;2023-05-07T06:56:54;18.20;;;12.15;;
4857;SDS011;58975;51.978;8.472;2023-05-07T07:01:50;20.92;;;11.95;;
4857;SDS011;58975;51.978;8.472;2023-05-07T07:06:46;16.67;;;11.05;;
4857;SDS011;58975;51.978;8.472;2023-05-07T07:11:43;19.73;;;11.32;;
4857;SDS011;58975;51.978;8.472;2023-05-07T07:16:39;16.92;;;10.52;;
4857;SDS011;58975;51.978;8.472;2023-05-07T07:21:37;14.80;;;9.17;;
4857;SDS011;58975;51.978;8.472;2023-05-07T07:26:33;16.20;;;9.43;;
4857;SDS011;58975;51.978;8.472;2023-05-07T07:31:30;13.52;;;8.93;;
4857;SDS011;58975;51.978;8.472;2023-05-07T07:36:27;16.67;;;9.63;;
4857;SDS011;58975;51.978;8.472;2023-05-07T07:41:40;15.70;;;8.75;;
4857;SDS011;58975;51.978;8.472;2023-05-07T07:46:36;13.52;;;8.90;;
4857;SDS011;58975;51.978;8.472;2023-05-07T07:51:33;12.13;;;8.15;;
4857;SDS011;58975;51.978;8.472;2023-05-07T07:56:29;11.43;;;7.75;;
4857;SDS011;58975;51.978;8.472;2023-05-07T08:01:26;13.70;;;8.50;;
4857;SDS011;58975;51.978;8.472;2023-05-07T08:06:23;10.85;;;7.38;;
4857;SDS011;58975;51.978;8.472;2023-05-07T08:11:19;10.27;;;7.15;;
4857;SDS011;58975;51.978;8.472;2023-05-07T08:16:16;10.27;;;6.88;;
4857;SDS011;58975;51.978;8.472;2023-05-07T08:21:12;9.75;;;7.22;;
4857;SDS011;58975;51.978;8.472;2023-05-07T08:26:09;10.10;;;7.57;;
4857;SDS011;58975;51.978;8.472;2023-05-07T08:31:05;11.63;;;6.93;;
4857;SDS011;58975;51.978;8.472;2023-05-07T08:36:02;9.60;;;6.57;;
4857;SDS011;58975;51.978;8.472;2023-05-07T08:40:58;9.10;;;6.43;;
4857;SDS011;58975;51.978;8.472;2023-05-07T08:45:54;12.63;;;7.05;;
4857;SDS011;58975;51.978;8.472;2023-05-07T08:50:51;12.77;;;6.87;;
4857;SDS011;58975;51.978;8.472;2023-05-07T08:55:48;9.20;;;6.80;;
4857;SDS011;58975;51.978;8.472;2023-05-07T09:00:45;8.52;;;5.78;;
4857;SDS011;58975;51.978;8.472;2023-05-07T09:05:43;8.57;;;6.10;;
4857;SDS011;58975;51.978;8.472;2023-05-07T09:10:40;8.70;;;5.30;;
4857;SDS011;58975;51.978;8.472;2023-05-07T09:15:36;7.90;;;5.10;;
4857;SDS011;58975;51.978;8.472;2023-05-07T09:20:32;7.57;;;5.85;;
4857;SDS011;58975;51.978;8.472;2023-05-07T09:25:32;7.03;;;5.00;;
4857;SDS011;58975;51.978;8.472;2023-05-07T09:30:30;7.88;;;5.30;;
4857;SDS011;58975;51.978;8.472;2023-05-07T09:35:28;8.35;;;6.22;;
4857;SDS011;58975;51.978;8.472;2023-05-07T09:40:25;8.73;;;5.50;;
4857;SDS011;58975;51.978;8.472;2023-05-07T09:45:26;8.02;;;5.03;;
4857;SDS011;58975;51.978;8.472;2023-05-07T09:50:27;7.75;;;5.70;;
4857;SDS011;58975;51.978;8.472;2023-05-07T09:55:24;8.55;;;4.63;;
4857;SDS011;58975;51.978;8.472;2023-05-07T10:00:22;5.77;;;4.67;;
4857;SDS011;58975;51.978;8.472;2023-05-07T10:05:19;6.53;;;4.57;;
4857;SDS011;58975;51.978;8.472;2023-05-07T10:10:18;7.32;;;4.47;;
4857;SDS011;58975;51.978;8.472;2023-05-07T10:15:15;8.65;;;4.47;;
4857;SDS011;58975;51.978;8.472;2023-05-07T10:20:12;6.10;;;4.03;;
4857;SDS011;58975;51.978;8.472;2023-05-07T10:25:13;7.28;;;4.00;;
4857;SDS011;58975;51.978;8.472;2023-05-07T10:35:55;5.70;;;4.93;;
4857;SDS011;58975;51.978;8.472;2023-05-07T10:40:55;6.30;;;4.72;;
4857;SDS011;58975;51.978;8.472;2023-05-07T10:51:20;9.13;;;6.25;;
4857;SDS011;58975;51.978;8.472;2023-05-07T11:01:15;7.00;;;4.50;;
4857;SDS011;58975;51.978;8.472;2023-05-07T11:12:03;6.53;;;4.05;;
4857;SDS011;58975;51.978;8.472;2023-05-07T11:17:03;8.50;;;4.13;;
4857;SDS011;58975;51.978;8.472;2023-05-07T11:21:59;5.05;;;3.95;;
4857;SDS011;58975;51.978;8.472;2023-05-07T11:26:56;5.55;;;3.75;;
4857;SDS011;58975;51.978;8.472;2023-05-07T11:31:53;4.57;;;3.63;;
4857;SDS011;58975;51.978;8.472;2023-05-07T11:36:51;4.72;;;3.72;;
4857;SDS011;58975;51.978;8.472;2023-05-07T11:41:48;3.80;;;2.92;;
4857;SDS011;58975;51.978;8.472;2023-05-07T11:46:48;4.25;;;3.55;;
4857;SDS011;58975;51.978;8.472;2023-05-07T11:51:45;8.35;;;3.58;;
4857;SDS011;58975;51.978;8.472;2023-05-07T11:56:43;3.50;;;2.50;;
4857;SDS011;58975;51.978;8.472;2023-05-07T12:01:42;5.03;;;3.60;;
4857;SDS011;58975;51.978;8.472;2023-05-07T12:06:42;4.22;;;3.10;;
4857;SDS011;58975;51.978;8.472;2023-05-07T12:11:38;4.82;;;3.13;;
4857;SDS011;58975;51.978;8.472;2023-05-07T12:21:32;4.20;;;2.80;;
4857;SDS011;58975;51.978;8.472;2023-05-07T12:26:29;5.13;;;2.70;;
4857;SDS011;58975;51.978;8.472;2023-05-07T12:31:26;4.15;;;2.90;;
4857;SDS011;58975;51.978;8.472;2023-05-07T12:36:23;4.47;;;3.28;;
4857;SDS011;58975;51.978;8.472;2023-05-07T12:41:20;4.00;;;2.95;;
4857;SDS011;58975;51.978;8.472;2023-05-07T12:46:21;4.28;;;2.55;;
4857;SDS011;58975;51.978;8.472;2023-05-07T12:51:19;3.15;;;2.70;;
4857;SDS011;58975;51.978;8.472;2023-05-07T12:56:16;3.95;;;2.63;;
4857;SDS011;58975;51.978;8.472;2023-05-07T13:01:12;3.67;;;2.47;;
4857;SDS011;58975;51.978;8.472;2023-05-07T13:06:11;2.85;;;2.55;;
4857;SDS011;58975;51.978;8.472;2023-05-07T13:11:11;5.65;;;2.75;;
4857;SDS011;58975;51.978;8.472;2023-05-07T13:16:09;2.95;;;2.40;;
4857;SDS011;58975;51.978;8.472;2023-05-07T13:21:07;4.18;;;2.75;;
4857;SDS011;58975;51.978;8.472;2023-05-07T13:26:04;3.47;;;2.83;;
4857;SDS011;58975;51.978;8.472;2023-05-07T13:31:13;10.43;;;2.63;;
4857;SDS011;58975;51.978;8.472;2023-05-07T13:36:10;3.83;;;2.75;;
4857;SDS011;58975;51.978;8.472;2023-05-07T13:41:06;3.05;;;2.60;;
4857;SDS011;58975;51.978;8.472;2023-05-07T13:46:03;3.15;;;2.80;;
4857;SDS011;58975;51.978;8.472;2023-05-07T13:50:59;4.18;;;3.00;;
4857;SDS011;58975;51.978;8.472;2023-05-07T13:55:56;3.22;;;2.65;;
4857;SDS011;58975;51.978;8.472;2023-05-07T14:00:52;3.83;;;3.20;;
4857;SDS011;58975;51.978;8.472;2023-05-07T14:05:48;6.55;;;3.97;;
4857;SDS011;58975;51.978;8.472;2023-05-07T14:10:45;5.63;;;4.00;;
4857;SDS011;58975;51.978;8.472;2023-05-07T14:15:42;4.85;;;3.25;;
4857;SDS011;58975;51.978;8.472;2023-05-07T14:20:42;5.60;;;4.07;;
4857;SDS011;58975;51.978;8.472;2023-05-07T14:25:42;6.68;;;3.78;;
4857;SDS011;58975;51.978;8.472;2023-05-07T14:30:39;6.10;;;4.40;;
4857;SDS011;58975;51.978;8.472;2023-05-07T14:35:36;6.03;;;3.92;;
4857;SDS011;58975;51.978;8.472;2023-05-07T14:40:32;6.22;;;4.20;;
4857;SDS011;58975;51.978;8.472;2023-05-07T14:45:28;6.70;;;4.20;;
4857;SDS011;58975;51.978;8.472;2023-05-07T14:50:25;5.28;;;3.97;;
4857;SDS011;58975;51.978;8.472;2023-05-07T14:55:21;6.97;;;4.78;;
4857;SDS011;58975;51.978;8.472;2023-05-07T15:00:18;6.07;;;4.82;;
4857;SDS011;58975;51.978;8.472;2023-05-07T15:05:15;12.00;;;5.20;;
4857;SDS011;58975;51.978;8.472;2023-05-07T15:10:11;6.32;;;4.63;;
4857;SDS011;58975;51.978;8.472;2023-05-07T15:15:08;5.97;;;4.45;;
4857;SDS011;58975;51.978;8.472;2023-05-07T15:20:05;7.00;;;5.07;;
4857;SDS011;58975;51.978;8.472;2023-05-07T15:25:03;8.38;;;5.78;;
4857;SDS011;58975;51.978;8.472;2023-05-07T15:34:57;6.55;;;4.68;;
4857;SDS011;58975;51.978;8.472;2023-05-07T15:39:53;6.07;;;4.80;;
4857;SDS011;58975;51.978;8.472;2023-05-07T15:44:50;7.90;;;5.30;;
4857;SDS011;58975;51.978;8.472;2023-05-07T15:49:46;8.10;;;5.15;;
4857;SDS011;58975;51.978;8.472;2023-05-07T15:54:42;6.80;;;5.30;;
4857;SDS011;58975;51.978;8.472;2023-05-07T15:59:39;6.93;;;5.43;;
4857;SDS011;58975;51.978;8.472;2023-05-07T16:04:35;7.47;;;5.60;;
4857;SDS011;58975;51.978;8.472;2023-05-07T16:09:32;7.47;;;5.47;;
4857;SDS011;58975;51.978;8.472;2023-05-07T16:14:28;5.90;;;4.68;;
4857;SDS011;58975;51.978;8.472;2023-05-07T16:19:24;10.60;;;5.50;;
4857;SDS011;58975;51.978;8.472;2023-05-07T16:24:21;7.50;;;5.38;;
4857;SDS011;58975;51.978;8.472;2023-05-07T16:29:17;6.18;;;4.82;;
4857;SDS011;58975;51.978;8.472;2023-05-07T16:34:15;6.45;;;5.25;;
4857;SDS011;58975;51.978;8.472;2023-05-07T16:39:12;7.43;;;5.18;;
4857;SDS011;58975;51.978;8.472;2023-05-07T16:44:08;8.13;;;5.00;;
4857;SDS011;58975;51.978;8.472;2023-05-07T16:49:05;8.23;;;4.63;;
4857;SDS011;58975;51.978;8.472;2023-05-07T16:54:01;6.95;;;5.18;;
4857;SDS011;58975;51.978;8.472;2023-05-07T16:58:58;6.05;;;5.30;;
4857;SDS011;58975;51.978;8.472;2023-05-07T17:03:55;6.47;;;4.97;;
4857;SDS011;58975;51.978;8.472;2023-05-07T17:08:51;6.88;;;5.28;;
4857;SDS011;58975;51.978;8.472;2023-05-07T17:13:48;7.60;;;4.93;;
4857;SDS011;58975;51.978;8.472;2023-05-07T17:18:44;8.07;;;5.10;;
4857;SDS011;58975;51.978;8.472;2023-05-07T17:23:40;7.63;;;5.05;;
4857;SDS011;58975;51.978;8.472;2023-05-07T17:28:37;7.70;;;4.50;;
4857;SDS011;58975;51.978;8.472;2023-05-07T17:33:34;5.60;;;4.65;;
4857;SDS011;58975;51.978;8.472;2023-05-07T17:38:31;5.43;;;3.90;;
4857;SDS011;58975;51.978;8.472;2023-05-07T17:43:27;6.10;;;4.57;;
4857;SDS011;58975;51.978;8.472;2023-05-07T17:48:24;6.63;;;4.65;;
4857;SDS011;58975;51.978;8.472;2023-05-07T17:53:20;6.03;;;4.60;;
4857;SDS011;58975;51.978;8.472;2023-05-07T17:58:19;5.07;;;4.32;;
4857;SDS011;58975;51.978;8.472;2023-05-07T18:03:17;6.00;;;4.75;;
4857;SDS011;58975;51.978;8.472;2023-05-07T18:08:14;9.52;;;5.10;;
4857;SDS011;58975;51.978;8.472;2023-05-07T18:13:10;6.88;;;4.47;;
4857;SDS011;58975;51.978;8.472;2023-05-07T18:18:07;7.78;;;5.20;;
4857;SDS011;58975;51.978;8.472;2023-05-07T18:23:03;5.78;;;4.63;;
4857;SDS011;58975;51.978;8.472;2023-05-07T18:28:00;7.88;;;5.75;;
4857;SDS011;58975;51.978;8.472;2023-05-07T18:32:56;8.32;;;5.10;;
4857;SDS011;58975;51.978;8.472;2023-05-07T18:37:52;8.82;;;5.75;;
4857;SDS011;58975;51.978;8.472;2023-05-07T18:42:49;6.97;;;5.53;;
4857;SDS011;58975;51.978;8.472;2023-05-07T18:47:45;7.07;;;6.28;;
4857;SDS011;58975;51.978;8.472;2023-05-07T18:52:43;6.30;;;5.67;;
4857;SDS011;58975;51.978;8.472;2023-05-07T18:57:39;7.57;;;5.78;;
4857;SDS011;58975;51.978;8.472;2023-05-07T19:02:37;8.38;;;5.80;;
4857;SDS011;58975;51.978;8.472;2023-05-07T19:07:33;6.63;;;5.50;;
4857;SDS011;58975;51.978;8.472;2023-05-07T19:12:30;10.55;;;6.53;;
4857;SDS011;58975;51.978;8.472;2023-05-07T19:17:26;10.10;;;7.38;;
4857;SDS011;58975;51.978;8.472;2023-05-07T19:22:23;10.43;;;9.10;;
4857;SDS011;58975;51.978;8.472;2023-05-07T19:27:20;12.23;;;9.43;;
4857;SDS011;58975;51.978;8.472;2023-05-07T19:32:16;10.55;;;8.43;;
4857;SDS011;58975;51.978;8.472;2023-05-07T19:37:15;10.48;;;8.52;;
4857;SDS011;58975;51.978;8.472;2023-05-07T19:42:11;12.98;;;9.75;;
4857;SDS011;58975;51.978;8.472;2023-05-07T19:47:09;13.07;;;9.87;;
4857;SDS011;58975;51.978;8.472;2023-05-07T19:52:06;10.57;;;8.50;;
4857;SDS011;58975;51.978;8.472;2023-05-07T19:57:02;13.02;;;10.55;;
4857;SDS011;58975;51.978;8.472;2023-05-07T20:01:58;11.30;;;9.27;;
4857;SDS011;58975;51.978;8.472;2023-05-07T20:06:55;12.73;;;9.85;;
4857;SDS011;58975;51.978;8.472;2023-05-07T20:11:52;16.33;;;9.32;;
4857;SDS011;58975;51.978;8.472;2023-05-07T20:16:49;13.60;;;9.32;;
4857;SDS011;58975;51.978;8.472;2023-05-07T20:21:45;14.40;;;10.18;;
4857;SDS011;58975;51.978;8.472;2023-05-07T20:26:41;12.88;;;9.88;;
4857;SDS011;58975;51.978;8.472;2023-05-07T20:31:38;13.77;;;9.77;;
4857;SDS011;58975;51.978;8.472;2023-05-07T20:36:35;13.03;;;9.80;;
4857;SDS011;58975;51.978;8.472;2023-05-07T20:41:32;12.90;;;9.68;;
4857;SDS011;58975;51.978;8.472;2023-05-07T20:46:29;13.98;;;9.73;;
4857;SDS011;58975;51.978;8.472;2023-05-07T20:51:26;11.07;;;8.32;;
4857;SDS011;58975;51.978;8.472;2023-05-07T20:56:22;12.93;;;8.85;;
4857;SDS011;58975;51.978;8.472;2023-05-07T21:01:18;8.52;;;7.20;;
4857;SDS011;58975;51.978;8.472;2023-05-07T21:06:15;6.72;;;5.38;;
4857;SDS011;58975;51.978;8.472;2023-05-07T21:11:11;5.85;;;4.85;;
4857;SDS011;58975;51.978;8.472;2023-05-07T21:16:08;9.35;;;5.07;;
4857;SDS011;58975;51.978;8.472;2023-05-07T21:21:08;10.05;;;4.88;;
4857;SDS011;58975;51.978;8.472;2023-05-07T21:26:05;5.95;;;4.70;;
4857;SDS011;58975;51.978;8.472;2023-05-07T21:31:02;6.05;;;4.10;;
4857;SDS011;58975;51.978;8.472;2023-05-07T21:35:59;5.25;;;4.32;;
4857;SDS011;58975;51.978;8.472;2023-05-07T21:40:55;5.57;;;4.53;;
4857;SDS011;58975;51.978;8.472;2023-05-07T21:45:52;7.60;;;4.40;;
4857;SDS011;58975;51.978;8.472;2023-05-07T21:50:58;5.38;;;4.40;;
4857;SDS011;58975;51.978;8.472;2023-05-07T21:55:55;5.15;;;4.22;;
4857;SDS011;58975;51.978;8.472;2023-05-07T22:00:55;6.35;;;4.40;;
4857;SDS011;58975;51.978;8.472;2023-05-07T22:05:52;5.00;;;4.45;;
4857;SDS011;58975;51.978;8.472;2023-05-07T22:10:48;4.60;;;4.05;;
4857;SDS011;58975;51.978;8.472;2023-05-07T22:15:45;7.15;;;4.70;;
4857;SDS011;58975;51.978;8.472;2023-05-07T22:20:53;6.80;;;4.32;;
4857;SDS011;58975;51.978;8.472;2023-05-07T22:25:50;4.70;;;3.88;;
4857;SDS011;58975;51.978;8.472;2023-05-07T22:30:46;4.53;;;4.03;;
4857;SDS011;58975;51.978;8.472;2023-05-07T22:35:42;5.88;;;4.43;;
4857;SDS011;58975;51.978;8.472;2023-05-07T22:40:39;5.00;;;4.45;;
4857;SDS011;58975;51.978;8.472;2023-05-07T22:45:35;5.93;;;4.38;;
4857;SDS011;58975;51.978;8.472;2023-05-07T22:50:38;6.28;;;4.68;;
4857;SDS011;58975;51.978;8.472;2023-05-07T22:55:34;5.32;;;4.40;;
4857;SDS011;58975;51.978;8.472;2023-05-07T23:00:30;5.80;;;4.15;;
4857;SDS011;58975;51.978;8.472;2023-05-07T23:05:27;6.00;;;4.65;;
4857;SDS011;58975;51.978;8.472;2023-05-07T23:10:23;6.43;;;4.25;;
4857;SDS011;58975;51.978;8.472;2023-05-07T23:15:20;5.07;;;4.30;;
4857;SDS011;58975;51.978;8.472;2023-05-07T23:20:16;5.03;;;4.53;;
4857;SDS011;58975;51.978;8.472;2023-05-07T23:25:12;4.60;;;3.90;;
4857;SDS011;58975;51.978;8.472;2023-05-07T23:30:09;5.18;;;4.43;;
4857;SDS011;58975;51.978;8.472;2023-05-07T23:35:06;5.07;;;4.13;;
4857;SDS011;58975;51.978;8.472;2023-05-07T23:40:03;5.78;;;4.13;;
4857;SDS011;58975;51.978;8.472;2023-05-07T23:45:01;4.20;;;3.80;;
4857;SDS011;58975;51.978;8.472;2023-05-07T23:49:57;5.28;;;4.28;;
4857;SDS011;58975;51.978;8.472;2023-05-07T23:54:54;4.45;;;4.05;;
4857;SDS011;58975;51.978;8.472;2023-05-07T23:59:51;4.35;;;3.83;;
